sensor_id;sensor_type;location;lat;lon;timestamp;pressure;altitude;pressure_sealevel;temperature;humidity
31775;BME280;66189;49.000;11.640;2022-12-22T00:02:03;95623.75;;;4.40;92.53
31775;BME280;66189;49.000;11.640;2022-12-22T00:04:26;95620.88;;;4.45;92.19
31775;BME280;66189;49.000;11.640;2022-12-22T00:06:45;95616.47;;;4.50;91.43
31775;BME280;66189;49.000;11.640;2022-12-22T00:09:04;95621.31;;;4.26;90.75
31775;BME280;66189;49.000;11.640;2022-12-22T00:11:23;95618.47;;;4.11;90.67
31775;BME280;66189;49.000;11.640;2022-12-22T00:13:44;95615.03;;;4.10;91.05
31775;BME280;66189;49.000;11.640;2022-12-22T00:16:03;95601.03;;;3.92;90.48
31775;BME280;66189;49.000;11.640;2022-12-22T00:18:23;95604.38;;;4.10;91.28
31775;BME280;66189;49.000;11.640;2022-12-22T00:20:41;95605.06;;;3.98;91.07
31775;BME280;66189;49.000;11.640;2022-12-22T00:23:00;95602.09;;;4.00;91.92
31775;BME280;66189;49.000;11.640;2022-12-22T00:25:19;95596.56;;;4.05;91.92
31775;BME280;66189;49.000;11.640;2022-12-22T00:27:39;95604.78;;;4.21;92.81
31775;BME280;66189;49.000;11.640;2022-12-22T00:29:58;95606.53;;;3.87;92.49
31775;BME280;66189;49.000;11.640;2022-12-22T00:32:17;95607.75;;;3.98;92.72
31775;BME280;66189;49.000;11.640;2022-12-22T00:34:39;95602.41;;;3.98;92.62
31775;BME280;66189;49.000;11.640;2022-12-22T00:36:59;95610.13;;;3.61;92.25
31775;BME280;66189;49.000;11.640;2022-12-22T00:39:18;95595.63;;;3.50;91.29
31775;BME280;66189;49.000;11.640;2022-12-22T00:41:37;95589.16;;;3.30;90.72
31775;BME280;66189;49.000;11.640;2022-12-22T00:43:56;95580.66;;;3.36;90.84
31775;BME280;66189;49.000;11.640;2022-12-22T00:46:18;95574.38;;;3.11;90.70
31775;BME280;66189;49.000;11.640;2022-12-22T00:48:39;95588.41;;;3.20;91.42
31775;BME280;66189;49.000;11.640;2022-12-22T00:50:59;95574.84;;;3.05;91.18
31775;BME280;66189;49.000;11.640;2022-12-22T00:53:18;95576.22;;;3.11;91.55
31775;BME280;66189;49.000;11.640;2022-12-22T00:55:38;95576.97;;;3.20;91.87
31775;BME280;66189;49.000;11.640;2022-12-22T00:57:57;95573.88;;;3.09;91.79
31775;BME280;66189;49.000;11.640;2022-12-22T01:00:18;95569.63;;;3.17;92.01
31775;BME280;66189;49.000;11.640;2022-12-22T01:02:37;95561.22;;;3.15;92.05
31775;BME280;66189;49.000;11.640;2022-12-22T01:04:56;95560.72;;;3.22;92.33
31775;BME280;66189;49.000;11.640;2022-12-22T01:07:17;95562.94;;;3.11;92.34
31775;BME280;66189;49.000;11.640;2022-12-22T01:09:36;95559.75;;;3.26;92.21
31775;BME280;66189;49.000;11.640;2022-12-22T01:11:56;95561.22;;;3.15;92.62
31775;BME280;66189;49.000;11.640;2022-12-22T01:14:15;95565.06;;;3.26;92.75
31775;BME280;66189;49.000;11.640;2022-12-22T01:16:35;95559.09;;;3.29;92.80
31775;BME280;66189;49.000;11.640;2022-12-22T01:18:53;95560.97;;;3.37;93.01
31775;BME280;66189;49.000;11.640;2022-12-22T01:21:13;95569.06;;;3.41;92.72
31775;BME280;66189;49.000;11.640;2022-12-22T01:23:34;95559.59;;;3.31;92.75
31775;BME280;66189;49.000;11.640;2022-12-22T01:25:53;95554.41;;;3.35;92.92
31775;BME280;66189;49.000;11.640;2022-12-22T01:28:16;95549.31;;;3.51;92.50
31775;BME280;66189;49.000;11.640;2022-12-22T01:30:37;95537.97;;;3.42;92.30
31775;BME280;66189;49.000;11.640;2022-12-22T01:32:56;95545.63;;;3.43;92.08
31775;BME280;66189;49.000;11.640;2022-12-22T01:35:18;95547.19;;;3.35;91.69
31775;BME280;66189;49.000;11.640;2022-12-22T01:37:38;95539.69;;;3.37;91.67
31775;BME280;66189;49.000;11.640;2022-12-22T01:39:57;95542.34;;;3.37;91.51
31775;BME280;66189;49.000;11.640;2022-12-22T01:42:16;95537.81;;;3.38;90.83
31775;BME280;66189;49.000;11.640;2022-12-22T01:44:35;95538.97;;;3.28;90.78
31775;BME280;66189;49.000;11.640;2022-12-22T01:47:28;95530.09;;;3.15;91.19
31775;BME280;66189;49.000;11.640;2022-12-22T01:49:48;95527.59;;;3.19;90.98
31775;BME280;66189;49.000;11.640;2022-12-22T01:52:07;95524.59;;;3.20;91.89
31775;BME280;66189;49.000;11.640;2022-12-22T01:54:28;95522.31;;;3.10;92.15
31775;BME280;66189;49.000;11.640;2022-12-22T01:56:47;95521.34;;;3.15;91.41
31775;BME280;66189;49.000;11.640;2022-12-22T01:59:07;95521.44;;;3.27;91.34
31775;BME280;66189;49.000;11.640;2022-12-22T02:01:29;95518.69;;;3.15;91.23
31775;BME280;66189;49.000;11.640;2022-12-22T02:03:49;95516.13;;;3.27;90.95
31775;BME280;66189;49.000;11.640;2022-12-22T02:06:32;95510.84;;;3.18;90.58
31775;BME280;66189;49.000;11.640;2022-12-22T02:09:05;95511.25;;;2.99;90.42
31775;BME280;66189;49.000;11.640;2022-12-22T02:11:51;95509.13;;;2.84;91.26
31775;BME280;66189;49.000;11.640;2022-12-22T02:22:00;95487.19;;;2.96;91.95
31775;BME280;66189;49.000;11.640;2022-12-22T02:24:39;95496.91;;;2.92;91.43
31775;BME280;66189;49.000;11.640;2022-12-22T02:27:00;95494.69;;;2.94;92.27
31775;BME280;66189;49.000;11.640;2022-12-22T02:29:29;95507.06;;;2.90;92.12
31775;BME280;66189;49.000;11.640;2022-12-22T02:31:50;95505.84;;;2.78;92.01
31775;BME280;66189;49.000;11.640;2022-12-22T02:34:13;95510.97;;;2.83;92.23
31775;BME280;66189;49.000;11.640;2022-12-22T02:36:42;95513.97;;;2.82;92.19
31775;BME280;66189;49.000;11.640;2022-12-22T02:39:27;95508.66;;;2.73;91.84
31775;BME280;66189;49.000;11.640;2022-12-22T02:42:17;95512.75;;;2.79;91.87
31775;BME280;66189;49.000;11.640;2022-12-22T02:47:28;95501.31;;;2.79;92.37
31775;BME280;66189;49.000;11.640;2022-12-22T02:49:54;95498.31;;;2.89;92.40
31775;BME280;66189;49.000;11.640;2022-12-22T02:52:32;95491.84;;;2.99;92.19
31775;BME280;66189;49.000;11.640;2022-12-22T02:54:53;95487.47;;;3.03;92.16
31775;BME280;66189;49.000;11.640;2022-12-22T02:57:15;95490.91;;;3.03;92.80
31775;BME280;66189;49.000;11.640;2022-12-22T02:59:34;95474.50;;;3.01;92.27
31775;BME280;66189;49.000;11.640;2022-12-22T03:01:53;95481.47;;;3.15;92.71
31775;BME280;66189;49.000;11.640;2022-12-22T03:04:13;95475.38;;;3.14;92.45
31775;BME280;66189;49.000;11.640;2022-12-22T03:06:31;95479.41;;;3.20;92.61
31775;BME280;66189;49.000;11.640;2022-12-22T03:08:50;95474.59;;;3.14;92.36
31775;BME280;66189;49.000;11.640;2022-12-22T03:11:09;95478.19;;;3.18;92.68
31775;BME280;66189;49.000;11.640;2022-12-22T03:13:28;95472.03;;;3.26;92.29
31775;BME280;66189;49.000;11.640;2022-12-22T03:15:47;95467.44;;;3.35;92.59
31775;BME280;66189;49.000;11.640;2022-12-22T03:18:08;95464.41;;;3.46;92.39
31775;BME280;66189;49.000;11.640;2022-12-22T03:20:28;95464.94;;;3.60;92.39
31775;BME280;66189;49.000;11.640;2022-12-22T03:22:46;95460.78;;;3.71;92.57
31775;BME280;66189;49.000;11.640;2022-12-22T03:25:06;95467.00;;;3.76;92.59
31775;BME280;66189;49.000;11.640;2022-12-22T03:27:25;95459.03;;;3.76;92.30
31775;BME280;66189;49.000;11.640;2022-12-22T03:29:25;95444.63;;;3.77;92.60
31775;BME280;66189;49.000;11.640;2022-12-22T03:31:28;95439.09;;;3.82;92.14
31775;BME280;66189;49.000;11.640;2022-12-22T03:33:30;95453.22;;;3.95;92.18
31775;BME280;66189;49.000;11.640;2022-12-22T03:35:30;95446.94;;;3.99;92.42
31775;BME280;66189;49.000;11.640;2022-12-22T03:37:31;95450.16;;;4.05;92.36
31775;BME280;66189;49.000;11.640;2022-12-22T03:39:31;95440.94;;;4.02;92.12
31775;BME280;66189;49.000;11.640;2022-12-22T03:41:31;95436.09;;;4.04;92.29
31775;BME280;66189;49.000;11.640;2022-12-22T03:43:50;95439.41;;;4.01;92.16
31775;BME280;66189;49.000;11.640;2022-12-22T03:46:12;95440.66;;;4.04;91.86
31775;BME280;66189;49.000;11.640;2022-12-22T03:48:30;95431.03;;;4.12;92.11
31775;BME280;66189;49.000;11.640;2022-12-22T03:50:31;95430.31;;;4.02;92.18
31775;BME280;66189;49.000;11.640;2022-12-22T03:52:31;95439.59;;;3.96;91.69
31775;BME280;66189;49.000;11.640;2022-12-22T03:54:31;95428.63;;;3.98;91.61
31775;BME280;66189;49.000;11.640;2022-12-22T03:56:32;95432.16;;;3.89;91.32
31775;BME280;66189;49.000;11.640;2022-12-22T03:58:32;95430.59;;;3.88;90.91
31775;BME280;66189;49.000;11.640;2022-12-22T04:00:32;95440.19;;;3.81;91.33
31775;BME280;66189;49.000;11.640;2022-12-22T04:02:33;95425.38;;;3.80;91.75
31775;BME280;66189;49.000;11.640;2022-12-22T04:04:33;95431.38;;;3.89;91.72
31775;BME280;66189;49.000;11.640;2022-12-22T04:06:33;95432.38;;;3.84;91.82
31775;BME280;66189;49.000;11.640;2022-12-22T04:08:34;95430.81;;;3.83;91.81
31775;BME280;66189;49.000;11.640;2022-12-22T04:10:34;95424.44;;;3.76;91.40
31775;BME280;66189;49.000;11.640;2022-12-22T04:12:53;95424.25;;;3.81;91.91
31775;BME280;66189;49.000;11.640;2022-12-22T04:14:53;95429.78;;;3.76;91.72
31775;BME280;66189;49.000;11.640;2022-12-22T04:16:54;95428.91;;;3.84;91.69
31775;BME280;66189;49.000;11.640;2022-12-22T04:18:54;95427.00;;;3.72;91.68
31775;BME280;66189;49.000;11.640;2022-12-22T04:20:55;95428.47;;;3.82;92.01
31775;BME280;66189;49.000;11.640;2022-12-22T04:22:55;95428.84;;;3.71;91.84
31775;BME280;66189;49.000;11.640;2022-12-22T04:24:56;95426.06;;;3.89;92.10
31775;BME280;66189;49.000;11.640;2022-12-22T04:26:56;95425.41;;;3.92;92.15
31775;BME280;66189;49.000;11.640;2022-12-22T04:28:56;95418.31;;;3.96;92.12
31775;BME280;66189;49.000;11.640;2022-12-22T04:30:57;95417.97;;;3.98;92.03
31775;BME280;66189;49.000;11.640;2022-12-22T04:32:57;95412.31;;;3.99;92.29
31775;BME280;66189;49.000;11.640;2022-12-22T04:34:58;95410.91;;;4.02;92.17
31775;BME280;66189;49.000;11.640;2022-12-22T04:36:58;95411.03;;;4.05;91.74
31775;BME280;66189;49.000;11.640;2022-12-22T04:38:58;95411.94;;;4.09;92.04
31775;BME280;66189;49.000;11.640;2022-12-22T04:40:59;95399.41;;;4.10;92.01
31775;BME280;66189;49.000;11.640;2022-12-22T04:42:59;95396.53;;;4.15;91.68
31775;BME280;66189;49.000;11.640;2022-12-22T04:44:59;95390.22;;;4.20;91.73
31775;BME280;66189;49.000;11.640;2022-12-22T04:47:00;95396.53;;;4.15;91.66
31775;BME280;66189;49.000;11.640;2022-12-22T04:49:00;95390.22;;;4.20;91.63
31775;BME280;66189;49.000;11.640;2022-12-22T04:51:00;95399.53;;;4.26;91.62
31775;BME280;66189;49.000;11.640;2022-12-22T04:53:01;95398.31;;;4.23;91.69
31775;BME280;66189;49.000;11.640;2022-12-22T04:55:02;95403.97;;;4.22;91.66
31775;BME280;66189;49.000;11.640;2022-12-22T04:57:02;95395.09;;;4.18;91.61
31775;BME280;66189;49.000;11.640;2022-12-22T04:59:03;95397.22;;;4.24;91.79
31775;BME280;66189;49.000;11.640;2022-12-22T05:01:14;95382.13;;;4.29;91.66
31775;BME280;66189;49.000;11.640;2022-12-22T05:03:15;95395.97;;;4.22;91.62
31775;BME280;66189;49.000;11.640;2022-12-22T05:05:15;95386.13;;;4.22;91.45
31775;BME280;66189;49.000;11.640;2022-12-22T05:07:15;95392.53;;;4.21;91.44
31775;BME280;66189;49.000;11.640;2022-12-22T05:09:15;95391.13;;;4.24;91.54
31775;BME280;66189;49.000;11.640;2022-12-22T05:11:16;95390.09;;;4.16;91.35
31775;BME280;66189;49.000;11.640;2022-12-22T05:13:16;95387.31;;;4.13;91.89
31775;BME280;66189;49.000;11.640;2022-12-22T05:15:16;95389.22;;;4.24;91.86
31775;BME280;66189;49.000;11.640;2022-12-22T05:17:17;95391.13;;;4.24;91.73
31775;BME280;66189;49.000;11.640;2022-12-22T05:19:17;95388.47;;;4.24;91.99
31775;BME280;66189;49.000;11.640;2022-12-22T05:21:18;95382.34;;;4.23;91.74
31775;BME280;66189;49.000;11.640;2022-12-22T05:23:20;95387.78;;;4.15;91.94
31775;BME280;66189;49.000;11.640;2022-12-22T05:25:20;95381.34;;;4.28;91.50
31775;BME280;66189;49.000;11.640;2022-12-22T05:27:21;95378.69;;;4.28;91.63
31775;BME280;66189;49.000;11.640;2022-12-22T05:29:21;95378.69;;;4.28;91.74
31775;BME280;66189;49.000;11.640;2022-12-22T05:31:22;95377.00;;;4.23;92.02
31775;BME280;66189;49.000;11.640;2022-12-22T05:33:23;95381.47;;;4.32;91.76
31775;BME280;66189;49.000;11.640;2022-12-22T05:35:23;95378.13;;;4.22;91.83
31775;BME280;66189;49.000;11.640;2022-12-22T05:37:23;95362.94;;;4.23;91.66
31775;BME280;66189;49.000;11.640;2022-12-22T05:39:24;95366.69;;;4.22;91.69
31775;BME280;66189;49.000;11.640;2022-12-22T05:41:24;95366.94;;;4.29;92.38
31775;BME280;66189;49.000;11.640;2022-12-22T05:43:24;95372.59;;;4.27;91.83
31775;BME280;66189;49.000;11.640;2022-12-22T05:45:25;95376.91;;;4.32;91.56
31775;BME280;66189;49.000;11.640;2022-12-22T05:47:25;95377.59;;;4.29;91.76
31775;BME280;66189;49.000;11.640;2022-12-22T05:49:25;95376.91;;;4.32;91.58
31775;BME280;66189;49.000;11.640;2022-12-22T05:51:26;95373.16;;;4.33;91.25
31775;BME280;66189;49.000;11.640;2022-12-22T05:53:26;95368.94;;;4.32;91.27
31775;BME280;66189;49.000;11.640;2022-12-22T05:55:27;95357.72;;;4.26;91.65
31775;BME280;66189;49.000;11.640;2022-12-22T05:57:27;95355.94;;;4.31;91.79
31775;BME280;66189;49.000;11.640;2022-12-22T05:59:27;95351.94;;;4.24;91.59
31775;BME280;66189;49.000;11.640;2022-12-22T06:01:28;95349.19;;;4.33;91.44
31775;BME280;66189;49.000;11.640;2022-12-22T06:03:29;95352.19;;;4.32;91.51
31775;BME280;66189;49.000;11.640;2022-12-22T06:05:29;95360.94;;;4.32;91.45
31775;BME280;66189;49.000;11.640;2022-12-22T06:07:30;95348.09;;;4.34;91.30
31775;BME280;66189;49.000;11.640;2022-12-22T06:09:30;95352.53;;;4.30;91.71
31775;BME280;66189;49.000;11.640;2022-12-22T06:11:30;95336.44;;;4.39;91.94
31775;BME280;66189;49.000;11.640;2022-12-22T06:13:31;95339.13;;;4.51;91.80
31775;BME280;66189;49.000;11.640;2022-12-22T06:15:31;95341.31;;;4.49;91.68
31775;BME280;66189;49.000;11.640;2022-12-22T06:17:31;95342.53;;;4.52;91.83
31775;BME280;66189;49.000;11.640;2022-12-22T06:19:32;95341.19;;;4.70;91.41
31775;BME280;66189;49.000;11.640;2022-12-22T06:21:32;95349.53;;;4.81;91.64
31775;BME280;66189;49.000;11.640;2022-12-22T06:23:33;95334.09;;;4.74;91.22
31775;BME280;66189;49.000;11.640;2022-12-22T06:25:33;95335.00;;;4.78;91.41
31775;BME280;66189;49.000;11.640;2022-12-22T06:27:34;95331.00;;;4.85;90.99
31775;BME280;66189;49.000;11.640;2022-12-22T06:29:34;95339.09;;;4.88;91.09
31775;BME280;66189;49.000;11.640;2022-12-22T06:31:34;95334.53;;;4.89;90.81
31775;BME280;66189;49.000;11.640;2022-12-22T06:33:34;95336.41;;;4.88;91.05
31775;BME280;66189;49.000;11.640;2022-12-22T06:35:35;95334.94;;;5.03;90.53
31775;BME280;66189;49.000;11.640;2022-12-22T06:37:36;95330.19;;;4.96;90.64
31775;BME280;66189;49.000;11.640;2022-12-22T06:39:36;95333.59;;;5.09;90.49
31775;BME280;66189;49.000;11.640;2022-12-22T06:41:37;95347.03;;;5.13;90.45
31775;BME280;66189;49.000;11.640;2022-12-22T06:43:56;95341.28;;;5.11;90.61
31775;BME280;66189;49.000;11.640;2022-12-22T06:45:56;95333.38;;;5.02;90.90
31775;BME280;66189;49.000;11.640;2022-12-22T06:47:56;95336.69;;;5.11;90.87
31775;BME280;66189;49.000;11.640;2022-12-22T06:49:57;95340.16;;;5.12;90.79
31775;BME280;66189;49.000;11.640;2022-12-22T06:51:57;95351.34;;;5.18;90.89
31775;BME280;66189;49.000;11.640;2022-12-22T06:53:58;95343.69;;;5.28;90.99
31775;BME280;66189;49.000;11.640;2022-12-22T06:55:58;95345.69;;;5.31;90.64
31775;BME280;66189;49.000;11.640;2022-12-22T06:57:58;95345.00;;;5.34;90.63
31775;BME280;66189;49.000;11.640;2022-12-22T06:59:59;95337.91;;;5.26;90.70
31775;BME280;66189;49.000;11.640;2022-12-22T07:01:59;95340.44;;;5.35;90.83
31775;BME280;66189;49.000;11.640;2022-12-22T07:04:00;95345.00;;;5.34;90.75
31775;BME280;66189;49.000;11.640;2022-12-22T07:06:00;95350.44;;;5.38;91.01
31775;BME280;66189;49.000;11.640;2022-12-22T07:08:00;95350.75;;;5.37;90.71
31775;BME280;66189;49.000;11.640;2022-12-22T07:10:01;95337.50;;;5.40;90.71
31775;BME280;66189;49.000;11.640;2022-12-22T07:12:01;95347.31;;;5.36;90.94
31775;BME280;66189;49.000;11.640;2022-12-22T07:14:02;95330.31;;;5.41;90.85
31775;BME280;66189;49.000;11.640;2022-12-22T07:16:04;95336.84;;;5.43;90.80
31775;BME280;66189;49.000;11.640;2022-12-22T07:18:05;95331.16;;;5.45;90.55
31775;BME280;66189;49.000;11.640;2022-12-22T07:20:05;95330.41;;;5.44;90.67
31775;BME280;66189;49.000;11.640;2022-12-22T07:22:06;95342.16;;;5.43;90.57
31775;BME280;66189;49.000;11.640;2022-12-22T07:24:07;95333.06;;;5.44;90.22
31775;BME280;66189;49.000;11.640;2022-12-22T07:26:08;95335.47;;;5.49;90.36
31775;BME280;66189;49.000;11.640;2022-12-22T07:28:09;95328.63;;;5.48;90.27
31775;BME280;66189;49.000;11.640;2022-12-22T07:30:10;95328.13;;;5.59;89.64
31775;BME280;66189;49.000;11.640;2022-12-22T07:32:10;95318.13;;;5.56;89.91
31775;BME280;66189;49.000;11.640;2022-12-22T07:34:10;95315.22;;;5.61;89.45
31775;BME280;66189;49.000;11.640;2022-12-22T07:36:16;95322.53;;;5.64;89.36
31775;BME280;66189;49.000;11.640;2022-12-22T07:38:17;95330.53;;;5.64;88.90
31775;BME280;66189;49.000;11.640;2022-12-22T07:40:17;95318.69;;;5.77;88.57
31775;BME280;66189;49.000;11.640;2022-12-22T07:42:17;95318.84;;;5.68;88.39
31775;BME280;66189;49.000;11.640;2022-12-22T07:44:36;95318.22;;;5.59;88.83
31775;BME280;66189;49.000;11.640;2022-12-22T07:46:38;95319.72;;;5.73;88.66
31775;BME280;66189;49.000;11.640;2022-12-22T07:48:38;95313.59;;;5.72;88.23
31775;BME280;66189;49.000;11.640;2022-12-22T07:51:01;95308.19;;;5.68;88.38
31775;BME280;66189;49.000;11.640;2022-12-22T07:53:03;95310.31;;;5.63;88.35
31775;BME280;66189;49.000;11.640;2022-12-22T07:55:04;95315.66;;;5.63;88.51
31775;BME280;66189;49.000;11.640;2022-12-22T07:57:04;95327.78;;;5.60;88.67
31775;BME280;66189;49.000;11.640;2022-12-22T07:59:05;95329.88;;;5.67;88.39
31775;BME280;66189;49.000;11.640;2022-12-22T08:01:06;95316.19;;;5.68;88.06
31775;BME280;66189;49.000;11.640;2022-12-22T08:03:08;95337.00;;;5.63;88.35
31775;BME280;66189;49.000;11.640;2022-12-22T08:05:08;95327.78;;;5.60;88.21
31775;BME280;66189;49.000;11.640;2022-12-22T08:07:09;95341.41;;;5.71;88.11
31775;BME280;66189;49.000;11.640;2022-12-22T08:09:13;95328.06;;;5.71;87.68
31775;BME280;66189;49.000;11.640;2022-12-22T08:11:14;95315.75;;;5.66;87.88
31775;BME280;66189;49.000;11.640;2022-12-22T08:13:14;95333.25;;;5.80;87.35
31775;BME280;66189;49.000;11.640;2022-12-22T08:15:14;95328.06;;;5.71;87.54
31775;BME280;66189;49.000;11.640;2022-12-22T08:17:15;95330.75;;;5.71;87.49
31775;BME280;66189;49.000;11.640;2022-12-22T08:19:15;95336.59;;;5.77;87.36
31775;BME280;66189;49.000;11.640;2022-12-22T08:21:16;95346.75;;;5.71;87.26
31775;BME280;66189;49.000;11.640;2022-12-22T08:23:16;95330.22;;;5.81;86.58
31775;BME280;66189;49.000;11.640;2022-12-22T08:25:17;95327.13;;;5.79;86.82
31775;BME280;66189;49.000;11.640;2022-12-22T08:27:18;95330.16;;;5.78;86.92
31775;BME280;66189;49.000;11.640;2022-12-22T08:29:23;95329.72;;;5.76;87.13
31775;BME280;66189;49.000;11.640;2022-12-22T08:31:26;95324.81;;;5.78;87.07
31775;BME280;66189;49.000;11.640;2022-12-22T08:33:28;95307.97;;;5.90;86.49
31775;BME280;66189;49.000;11.640;2022-12-22T08:35:28;95315.34;;;5.96;85.78
31775;BME280;66189;49.000;11.640;2022-12-22T08:37:29;95317.25;;;5.96;85.99
31775;BME280;66189;49.000;11.640;2022-12-22T08:39:36;95310.50;;;5.98;85.85
31775;BME280;66189;49.000;11.640;2022-12-22T08:41:38;95317.91;;;6.05;85.94
31775;BME280;66189;49.000;11.640;2022-12-22T08:43:50;95317.63;;;6.10;85.72
31775;BME280;66189;49.000;11.640;2022-12-22T08:45:51;95312.91;;;6.19;85.39
31775;BME280;66189;49.000;11.640;2022-12-22T08:47:51;95321.38;;;6.21;85.42
31775;BME280;66189;49.000;11.640;2022-12-22T08:49:51;95331.38;;;6.25;84.93
31775;BME280;66189;49.000;11.640;2022-12-22T08:51:52;95317.25;;;6.24;85.14
31775;BME280;66189;49.000;11.640;2022-12-22T08:53:52;95309.72;;;6.30;84.57
31775;BME280;66189;49.000;11.640;2022-12-22T08:55:53;95304.47;;;6.49;83.76
31775;BME280;66189;49.000;11.640;2022-12-22T08:57:54;95314.81;;;6.51;83.58
31775;BME280;66189;49.000;11.640;2022-12-22T08:59:54;95320.50;;;6.49;83.76
31775;BME280;66189;49.000;11.640;2022-12-22T09:01:54;95317.47;;;6.51;83.41
31775;BME280;66189;49.000;11.640;2022-12-22T09:03:55;95315.91;;;6.50;83.89
31775;BME280;66189;49.000;11.640;2022-12-22T09:06:01;95315.84;;;6.62;83.04
31775;BME280;66189;49.000;11.640;2022-12-22T09:08:01;95317.31;;;6.95;82.13
31775;BME280;66189;49.000;11.640;2022-12-22T09:10:02;95318.34;;;7.26;80.62
31775;BME280;66189;49.000;11.640;2022-12-22T09:12:03;95326.75;;;7.44;80.25
31775;BME280;66189;49.000;11.640;2022-12-22T09:14:04;95317.94;;;7.63;78.63
31775;BME280;66189;49.000;11.640;2022-12-22T09:16:05;95319.47;;;7.83;78.24
31775;BME280;66189;49.000;11.640;2022-12-22T09:18:06;95324.72;;;7.99;77.24
31775;BME280;66189;49.000;11.640;2022-12-22T09:20:07;95325.31;;;7.70;77.80
31775;BME280;66189;49.000;11.640;2022-12-22T09:22:07;95320.97;;;7.42;78.52
31775;BME280;66189;49.000;11.640;2022-12-22T09:24:08;95327.56;;;7.48;78.67
31775;BME280;66189;49.000;11.640;2022-12-22T09:26:10;95324.13;;;7.87;77.13
31775;BME280;66189;49.000;11.640;2022-12-22T09:28:10;95322.88;;;8.04;76.78
31775;BME280;66189;49.000;11.640;2022-12-22T09:30:11;95320.97;;;8.04;76.16
31775;BME280;66189;49.000;11.640;2022-12-22T09:32:12;95310.13;;;7.97;76.02
31775;BME280;66189;49.000;11.640;2022-12-22T09:34:12;95311.69;;;8.21;75.96
31775;BME280;66189;49.000;11.640;2022-12-22T09:36:13;95317.88;;;8.25;75.38
31775;BME280;66189;49.000;11.640;2022-12-22T09:38:16;95296.63;;;8.36;75.65
31775;BME280;66189;49.000;11.640;2022-12-22T09:40:16;95294.72;;;8.13;75.97
31775;BME280;66189;49.000;11.640;2022-12-22T09:42:21;95300.78;;;8.33;75.24
31775;BME280;66189;49.000;11.640;2022-12-22T09:44:32;95303.78;;;8.51;75.41
31775;BME280;66189;49.000;11.640;2022-12-22T09:46:35;95313.47;;;8.36;75.21
31775;BME280;66189;49.000;11.640;2022-12-22T09:48:36;95304.78;;;8.43;74.94
31775;BME280;66189;49.000;11.640;2022-12-22T09:50:37;95306.44;;;8.51;75.21
31775;BME280;66189;49.000;11.640;2022-12-22T09:52:42;95296.75;;;8.20;75.19
31775;BME280;66189;49.000;11.640;2022-12-22T09:54:45;95287.94;;;7.96;76.17
31775;BME280;66189;49.000;11.640;2022-12-22T09:56:45;95300.84;;;7.91;76.67
31775;BME280;66189;49.000;11.640;2022-12-22T09:58:46;95295.25;;;7.99;76.24
31775;BME280;66189;49.000;11.640;2022-12-22T10:00:50;95288.53;;;8.09;76.30
31775;BME280;66189;49.000;11.640;2022-12-22T10:09:19;95294.47;;;8.22;76.39
31775;BME280;66189;49.000;11.640;2022-12-22T10:11:20;95284.13;;;7.97;76.32
31775;BME280;66189;49.000;11.640;2022-12-22T10:13:21;95282.97;;;7.98;76.83
31775;BME280;66189;49.000;11.640;2022-12-22T10:15:21;95276.19;;;7.81;77.67
31775;BME280;66189;49.000;11.640;2022-12-22T10:19:22;95272.06;;;7.64;78.10
31775;BME280;66189;49.000;11.640;2022-12-22T10:21:23;95271.75;;;7.70;78.01
31775;BME280;66189;49.000;11.640;2022-12-22T10:23:25;95270.84;;;7.62;77.89
31775;BME280;66189;49.000;11.640;2022-12-22T10:25:43;95276.28;;;7.65;77.94
31775;BME280;66189;49.000;11.640;2022-12-22T10:27:49;95292.72;;;7.64;77.88
31775;BME280;66189;49.000;11.640;2022-12-22T10:29:50;95269.38;;;7.64;77.51
31775;BME280;66189;49.000;11.640;2022-12-22T10:32:05;95270.09;;;7.61;78.26
31775;BME280;66189;49.000;11.640;2022-12-22T10:34:16;95262.41;;;7.60;77.92
31775;BME280;66189;49.000;11.640;2022-12-22T10:36:23;95274.38;;;7.66;78.07
31775;BME280;66189;49.000;11.640;2022-12-22T10:38:29;95269.78;;;7.67;78.05
31775;BME280;66189;49.000;11.640;2022-12-22T10:40:31;95273.97;;;7.64;78.06
31775;BME280;66189;49.000;11.640;2022-12-22T10:42:33;95285.03;;;7.62;78.14
31775;BME280;66189;49.000;11.640;2022-12-22T10:44:36;95261.53;;;7.75;77.95
31775;BME280;66189;49.000;11.640;2022-12-22T10:46:41;95276.91;;;7.78;77.65
31775;BME280;66189;49.000;11.640;2022-12-22T10:48:42;95273.09;;;7.79;77.89
31775;BME280;66189;49.000;11.640;2022-12-22T10:50:47;95269.66;;;7.79;78.06
31775;BME280;66189;49.000;11.640;2022-12-22T10:52:51;95266.81;;;7.91;77.45
31775;BME280;66189;49.000;11.640;2022-12-22T10:55:25;95255.28;;;8.37;75.80
31775;BME280;66189;49.000;11.640;2022-12-22T10:57:29;95251.56;;;8.68;74.52
31775;BME280;66189;49.000;11.640;2022-12-22T10:59:31;95263.81;;;8.69;74.84
31775;BME280;66189;49.000;11.640;2022-12-22T11:01:36;95257.38;;;8.74;74.71
31775;BME280;66189;49.000;11.640;2022-12-22T11:03:36;95243.19;;;9.00;74.57
31775;BME280;66189;49.000;11.640;2022-12-22T11:05:36;95260.03;;;8.70;74.24
31775;BME280;66189;49.000;11.640;2022-12-22T11:07:40;95266.81;;;8.64;75.24
31775;BME280;66189;49.000;11.640;2022-12-22T11:09:41;95260.84;;;8.48;74.70
31775;BME280;66189;49.000;11.640;2022-12-22T11:11:49;95248.56;;;8.47;75.43
31775;BME280;66189;49.000;11.640;2022-12-22T11:14:16;95252.78;;;8.48;75.21
31775;BME280;66189;49.000;11.640;2022-12-22T11:17:08;95253.09;;;8.43;75.79
31775;BME280;66189;49.000;11.640;2022-12-22T11:21:58;95269.44;;;8.11;77.79
31775;BME280;66189;49.000;11.640;2022-12-22T11:29:32;95257.53;;;8.35;77.50
31775;BME280;66189;49.000;11.640;2022-12-22T11:31:56;95284.13;;;8.21;77.46
31775;BME280;66189;49.000;11.640;2022-12-22T11:36:59;95248.81;;;8.38;76.95
31775;BME280;66189;49.000;11.640;2022-12-22T11:39:13;95242.72;;;8.18;77.41
31775;BME280;66189;49.000;11.640;2022-12-22T11:41:24;95251.50;;;8.15;77.90
31775;BME280;66189;49.000;11.640;2022-12-22T11:43:57;95250.78;;;7.95;78.88
31775;BME280;66189;49.000;11.640;2022-12-22T11:50:41;95245.84;;;7.74;79.65
31775;BME280;66189;49.000;11.640;2022-12-22T11:53:00;95262.59;;;7.71;80.07